CheckWX is a tool to help pilots better visualize weather data.  It is not intended as a substitute for an official pre-flight weather briefing.

23:44:09 UTC

KFIG METAR
Clearfield-Lawrence Airport
Clearfield, Pennsylvania, USA
Current

50 mins ago

KFIG 182254Z AUTO 26005KT 10SM CLR 08/02 A3001 RMK AO2 SLP172 T00830017
Observed
Oct-18 @ 22:54 UTC
Wind
  • 260° at 5 KTS
Visibility
10 SM
Flight Rules
VFR
Cloud Levels
  • Clear skies
Temperature
C / 46°F
Dewpoint
C / 36°F
Humidity
66%
Altimeter
30.01" Hg
Pressure
1016.22 hPa
Previous

2 hours ago

KFIG 182154Z AUTO 27007KT 10SM CLR 11/01 A3001 RMK AO2 SLP169 T01060011
Observed
Oct-18 @ 21:54 UTC
Wind
  • 270° at 7 KTS
Visibility
10 SM
Flight Rules
VFR
Cloud Levels
  • Clear skies
Temperature
11°C / 52°F
Dewpoint
C / 34°F
Humidity
50%
Altimeter
30.01" Hg
Pressure
1016.22 hPa
Previous

3 hours ago

KFIG 182054Z AUTO 31008KT 10SM CLR 12/01 A3001 RMK AO2 SLP166 T01170006 53001
Observed
Oct-18 @ 20:54 UTC
Wind
  • 310° at 8 KTS
Visibility
10 SM
Flight Rules
VFR
Cloud Levels
  • Clear skies
Temperature
12°C / 54°F
Dewpoint
C / 34°F
Humidity
47%
Altimeter
30.01" Hg
Pressure
1016.22 hPa